createdAt,value
2022-09-27T00:00:14.964Z,100
2022-09-27T00:01:15.392Z,100
2022-09-27T00:02:14.785Z,100
2022-09-27T00:03:14.503Z,100
2022-09-27T00:04:14.689Z,100
2022-09-27T00:05:14.999Z,100
2022-09-27T00:07:16.545Z,100
2022-09-27T00:08:16.724Z,100
2022-09-27T00:09:16.752Z,100
2022-09-27T00:10:16.979Z,100
2022-09-27T00:12:18.481Z,100
2022-09-27T00:13:18.474Z,100
2022-09-27T00:14:18.846Z,100
2022-09-27T00:15:18.855Z,100
2022-09-27T00:16:18.566Z,100
2022-09-27T00:17:18.545Z,100
2022-09-27T00:18:18.585Z,100
2022-09-27T00:19:20.312Z,100
2022-09-27T00:20:19.299Z,100
2022-09-27T00:21:18.614Z,100
2022-09-27T00:22:18.658Z,100
2022-09-27T00:23:19.139Z,100
2022-09-27T00:24:20.561Z,100
2022-09-27T00:25:18.645Z,100
2022-09-27T00:26:18.676Z,100
2022-09-27T00:27:19.250Z,100
2022-09-27T00:28:18.713Z,100
2022-09-27T00:29:19.445Z,100
2022-09-27T00:30:18.735Z,100
2022-09-27T00:32:21.242Z,100
2022-09-27T00:33:21.249Z,100
2022-09-27T00:34:22.929Z,100
2022-09-27T00:35:21.291Z,100
2022-09-27T00:36:22.114Z,100
2022-09-27T00:37:21.303Z,100
2022-09-27T00:38:21.341Z,100
2022-09-27T00:39:21.342Z,100
2022-09-27T00:40:22.189Z,100
2022-09-27T00:41:26.007Z,100
2022-09-27T00:42:22.198Z,100
2022-09-27T00:43:23.469Z,100
2022-09-27T00:45:26.068Z,100
2022-09-27T00:48:36.380Z,100
2022-09-27T00:49:37.507Z,100
2022-09-27T00:50:36.548Z,100
2022-09-27T00:51:35.433Z,100
2022-09-27T00:53:42.072Z,100
2022-09-27T00:54:41.136Z,100
2022-09-27T00:55:42.517Z,100
2022-09-27T00:56:39.502Z,100
2022-09-27T00:57:39.267Z,100
2022-09-27T00:58:45.054Z,100
2022-09-27T00:59:44.570Z,100
2022-09-27T01:00:44.388Z,100
2022-09-27T01:01:41.414Z,100
2022-09-27T01:02:43.887Z,100
2022-09-27T01:03:48.988Z,100
2022-09-27T01:04:45.409Z,100
2022-09-27T01:05:45.716Z,100
2022-09-27T01:06:45.220Z,100
2022-09-27T01:07:45.229Z,100
2022-09-27T01:08:45.250Z,100
2022-09-27T01:09:45.442Z,100
2022-09-27T01:17:01.991Z,100
2022-09-27T01:22:14.242Z,100
2022-09-27T01:26:31.728Z,100
2022-09-27T01:30:43.121Z,100
2022-09-27T01:33:44.990Z,100
2022-09-27T01:34:48.584Z,100
2022-09-27T01:43:20.275Z,100
2022-09-27T01:45:29.714Z,100
2022-09-27T01:46:25.554Z,100
2022-09-27T01:47:24.103Z,100
2022-09-27T01:48:23.592Z,100
2022-09-27T01:49:35.625Z,100
2022-09-27T01:51:36.846Z,100
2022-09-27T01:52:37.435Z,100
2022-09-27T01:53:41.627Z,100
2022-09-27T01:54:44.767Z,100
2022-09-27T01:55:42.904Z,100
2022-09-27T01:56:50.172Z,100
2022-09-27T01:57:43.920Z,100
2022-09-27T01:58:48.992Z,100
2022-09-27T02:00:49.105Z,100
2022-09-27T02:01:48.455Z,100
2022-09-27T02:02:50.093Z,100
2022-09-27T02:03:49.677Z,100
2022-09-27T02:04:47.848Z,100
2022-09-27T02:05:50.279Z,100
2022-09-27T02:06:48.885Z,100
2022-09-27T02:07:50.701Z,100
2022-09-27T02:09:55.372Z,100
2022-09-27T02:10:53.943Z,100
2022-09-27T02:11:56.333Z,100
2022-09-27T02:21:14.799Z,100
2022-09-27T02:23:21.072Z,100
2022-09-27T02:24:21.204Z,100
2022-09-27T02:29:34.002Z,100
2022-09-27T02:30:25.811Z,100
2022-09-27T02:31:25.873Z,100
2022-09-27T02:32:25.859Z,100
2022-09-27T02:33:37.297Z,100
2022-09-27T02:34:30.988Z,100
2022-09-27T02:35:31.468Z,100
2022-09-27T02:36:29.831Z,100
2022-09-27T02:37:29.290Z,100
2022-09-27T02:38:29.242Z,100
2022-09-27T02:39:28.964Z,100
2022-09-27T02:40:33.282Z,100
2022-09-27T02:41:30.028Z,100
2022-09-27T02:42:30.462Z,100
2022-09-27T02:43:32.268Z,100
2022-09-27T02:44:30.421Z,100
2022-09-27T02:58:11.493Z,100
2022-09-27T02:59:05.236Z,100
2022-09-27T03:00:13.846Z,100
2022-09-27T03:01:12.369Z,100
2022-09-27T03:02:16.690Z,100
2022-09-27T03:03:17.832Z,100
2022-09-27T03:04:17.636Z,100
2022-09-27T03:05:18.155Z,100
2022-09-27T03:06:17.511Z,100
2022-09-27T03:07:15.255Z,100
2022-09-27T03:08:15.253Z,100
2022-09-27T03:09:21.217Z,100
2022-09-27T03:10:19.771Z,100
2022-09-27T03:11:17.921Z,100
2022-09-27T03:12:19.221Z,100
2022-09-27T03:13:17.895Z,100
2022-09-27T03:14:17.894Z,100
2022-09-27T03:15:18.070Z,100
2022-09-27T03:16:17.997Z,100
2022-09-27T03:17:18.306Z,100
2022-09-27T03:18:18.005Z,100
2022-09-27T03:19:17.985Z,100
2022-09-27T03:20:18.016Z,100
2022-09-27T03:21:17.967Z,100
2022-09-27T03:22:18.062Z,100
2022-09-27T03:23:18.052Z,100
2022-09-27T03:24:18.110Z,100
2022-09-27T03:25:18.314Z,100
2022-09-27T03:26:18.175Z,100
2022-09-27T03:27:18.082Z,100
2022-09-27T03:28:18.175Z,100
2022-09-27T03:29:18.055Z,100
2022-09-27T03:30:18.144Z,100
2022-09-27T03:31:18.170Z,100
2022-09-27T03:32:18.150Z,100
2022-09-27T03:33:18.173Z,100
2022-09-27T03:34:18.172Z,100
2022-09-27T03:35:18.161Z,100
2022-09-27T03:36:18.403Z,100
2022-09-27T03:37:18.194Z,100
2022-09-27T03:38:18.208Z,100
2022-09-27T03:39:18.220Z,100
2022-09-27T03:40:18.279Z,100
2022-09-27T03:41:18.257Z,100
2022-09-27T03:42:18.274Z,100
2022-09-27T03:43:18.334Z,100
2022-09-27T03:44:18.301Z,100
2022-09-27T03:45:18.337Z,100
2022-09-27T03:46:18.436Z,100
2022-09-27T03:47:18.419Z,100
2022-09-27T03:48:18.326Z,100
2022-09-27T03:49:18.577Z,100
2022-09-27T03:50:18.321Z,100
2022-09-27T03:51:18.604Z,100
2022-09-27T03:52:18.762Z,100
2022-09-27T03:53:18.591Z,100
2022-09-27T03:54:18.589Z,100
2022-09-27T03:55:18.479Z,100
2022-09-27T03:56:18.719Z,100
2022-09-27T03:57:18.452Z,100
2022-09-27T03:58:18.434Z,100
2022-09-27T03:59:18.532Z,100
2022-09-27T04:00:18.535Z,100
2022-09-27T04:01:18.856Z,100
2022-09-27T04:02:18.578Z,100
2022-09-27T04:03:18.801Z,100
2022-09-27T04:04:18.527Z,100
2022-09-27T04:05:18.580Z,100
2022-09-27T04:06:18.774Z,100
2022-09-27T04:07:18.611Z,100
2022-09-27T04:08:18.578Z,100
2022-09-27T04:09:18.597Z,100
2022-09-27T04:10:18.647Z,100
2022-09-27T04:11:18.666Z,100
2022-09-27T04:12:18.666Z,100
2022-09-27T04:13:19.191Z,100
2022-09-27T04:14:18.667Z,100
2022-09-27T04:15:18.682Z,100
2022-09-27T04:16:18.785Z,100
2022-09-27T04:17:19.074Z,100
2022-09-27T04:18:18.761Z,100
2022-09-27T04:19:18.774Z,100
2022-09-27T04:20:18.938Z,100
2022-09-27T04:21:18.936Z,100
2022-09-27T04:22:18.766Z,100
2022-09-27T04:23:18.764Z,100
2022-09-27T04:24:18.808Z,100
2022-09-27T04:25:18.794Z,100
2022-09-27T04:26:19.017Z,100
2022-09-27T04:27:18.844Z,100
2022-09-27T04:28:18.817Z,100
2022-09-27T04:29:18.938Z,100
2022-09-27T04:30:18.832Z,100
2022-09-27T04:31:19.563Z,100
2022-09-27T04:32:18.869Z,100
2022-09-27T04:33:18.839Z,100
2022-09-27T04:34:18.892Z,100
2022-09-27T04:35:18.949Z,100
2022-09-27T04:36:20.158Z,100
2022-09-27T04:37:18.919Z,100
2022-09-27T04:38:18.989Z,100
2022-09-27T04:39:18.951Z,100
2022-09-27T04:40:19.062Z,100
2022-09-27T04:41:19.073Z,100
2022-09-27T04:42:19.063Z,100
2022-09-27T04:43:18.983Z,100
2022-09-27T04:44:19.013Z,100
2022-09-27T04:45:20.128Z,100
2022-09-27T04:46:19.210Z,100
2022-09-27T04:47:19.272Z,100
2022-09-27T04:48:19.081Z,100
2022-09-27T04:49:19.275Z,100
2022-09-27T04:50:19.158Z,100
2022-09-27T04:51:19.407Z,100
2022-09-27T04:52:19.142Z,100
2022-09-27T04:53:19.144Z,100
2022-09-27T04:54:19.385Z,100
2022-09-27T04:55:19.646Z,100
2022-09-27T04:56:19.332Z,100
2022-09-27T04:57:19.307Z,100
2022-09-27T04:58:19.202Z,100
2022-09-27T04:59:19.345Z,100
2022-09-27T05:00:19.541Z,100
2022-09-27T05:01:19.322Z,100
2022-09-27T05:02:19.523Z,100
2022-09-27T05:03:19.541Z,100
2022-09-27T05:04:19.875Z,100
2022-09-27T05:05:19.305Z,100
2022-09-27T05:06:19.327Z,100
2022-09-27T05:07:19.365Z,100
2022-09-27T05:08:19.322Z,100
2022-09-27T05:09:19.824Z,100
2022-09-27T05:10:19.375Z,100
2022-09-27T05:11:19.416Z,100
2022-09-27T05:12:19.785Z,100
2022-09-27T05:13:19.603Z,100
2022-09-27T05:14:19.467Z,100
2022-09-27T05:15:19.422Z,100
2022-09-27T05:16:19.769Z,100
2022-09-27T05:17:19.950Z,100
2022-09-27T05:18:19.680Z,100
2022-09-27T05:19:19.510Z,100
2022-09-27T05:20:19.504Z,100
2022-09-27T05:21:19.487Z,100
2022-09-27T05:22:19.569Z,100
2022-09-27T05:23:19.560Z,100
2022-09-27T05:24:19.519Z,100
2022-09-27T05:25:19.591Z,100
2022-09-27T05:26:19.969Z,100
2022-09-27T05:27:19.573Z,100
2022-09-27T05:28:19.614Z,100
2022-09-27T05:29:20.584Z,100
2022-09-27T05:30:20.614Z,100
2022-09-27T05:31:20.880Z,100
2022-09-27T05:32:20.453Z,100
2022-09-27T05:33:20.427Z,100
2022-09-27T05:34:20.734Z,100
2022-09-27T05:35:20.984Z,100
2022-09-27T05:36:20.962Z,100
2022-09-27T05:37:21.155Z,100
2022-09-27T05:38:21.101Z,100
2022-09-27T05:39:20.612Z,100
2022-09-27T05:40:39.520Z,100
2022-09-27T05:41:21.980Z,100
2022-09-27T05:42:21.801Z,100
2022-09-27T05:43:21.859Z,100
2022-09-27T05:44:21.855Z,100
2022-09-27T05:45:22.290Z,100
2022-09-27T05:46:21.883Z,100
2022-09-27T05:47:21.874Z,100
2022-09-27T05:48:22.111Z,100
2022-09-27T05:49:21.876Z,100
2022-09-27T05:50:22.453Z,100
2022-09-27T05:51:21.902Z,100
2022-09-27T05:52:23.380Z,100
2022-09-27T05:53:21.947Z,100
2022-09-27T05:54:21.957Z,100
2022-09-27T05:55:22.306Z,100
2022-09-27T05:56:21.986Z,100
2022-09-27T05:57:21.990Z,100
2022-09-27T05:58:22.285Z,100
2022-09-27T05:59:22.010Z,100
2022-09-27T06:00:22.057Z,100
2022-09-27T06:01:22.134Z,100
2022-09-27T06:02:22.301Z,100
2022-09-27T06:03:22.416Z,100
2022-09-27T06:04:22.082Z,100
2022-09-27T06:05:22.748Z,100
2022-09-27T06:06:22.186Z,100
2022-09-27T06:07:22.125Z,100
2022-09-27T06:08:22.156Z,100
2022-09-27T06:09:22.244Z,100
2022-09-27T06:10:22.180Z,100
2022-09-27T06:11:22.197Z,100
2022-09-27T06:12:22.222Z,100
2022-09-27T06:13:22.241Z,100
2022-09-27T06:14:22.315Z,100
2022-09-27T06:15:22.275Z,100
2022-09-27T06:16:22.364Z,100
2022-09-27T06:17:22.271Z,100
2022-09-27T06:18:22.321Z,100
2022-09-27T06:19:22.369Z,100
2022-09-27T06:20:22.333Z,100
2022-09-27T06:21:22.349Z,100
2022-09-27T06:22:23.389Z,100
2022-09-27T06:23:23.438Z,100
2022-09-27T06:24:22.703Z,100
2022-09-27T06:25:22.412Z,100
2022-09-27T06:26:22.615Z,100
2022-09-27T06:27:22.479Z,100
2022-09-27T06:28:22.915Z,100
2022-09-27T06:29:22.506Z,100
2022-09-27T06:30:22.511Z,100
2022-09-27T06:31:22.814Z,100
2022-09-27T06:32:22.532Z,100
2022-09-27T06:33:22.843Z,100
2022-09-27T06:34:22.797Z,100
2022-09-27T06:35:22.578Z,100
2022-09-27T06:36:22.614Z,100
2022-09-27T06:37:26.451Z,100
2022-09-27T06:38:23.198Z,100
2022-09-27T06:39:22.712Z,100
2022-09-27T06:40:23.189Z,100
2022-09-27T06:41:22.720Z,100
2022-09-27T06:42:22.702Z,100
2022-09-27T06:43:22.749Z,100
2022-09-27T06:44:22.945Z,100
2022-09-27T06:45:22.743Z,100
2022-09-27T06:46:22.840Z,100
2022-09-27T06:47:22.813Z,100
2022-09-27T06:48:22.790Z,100
2022-09-27T06:49:23.024Z,100
2022-09-27T06:50:22.848Z,100
2022-09-27T06:51:22.855Z,100
2022-09-27T06:52:23.176Z,100
2022-09-27T06:53:22.883Z,100
2022-09-27T06:54:22.879Z,100
2022-09-27T06:55:22.901Z,100
2022-09-27T06:56:22.937Z,100
2022-09-27T06:57:22.942Z,100
2022-09-27T06:58:23.012Z,100
2022-09-27T06:59:23.624Z,100
2022-09-27T07:00:22.975Z,100
2022-09-27T07:01:27.400Z,100
2022-09-27T07:02:23.787Z,100
2022-09-27T07:03:24.013Z,100
2022-09-27T07:04:23.802Z,100
2022-09-27T07:05:23.983Z,100
2022-09-27T07:06:24.401Z,100
2022-09-27T07:07:23.823Z,100
2022-09-27T07:08:23.843Z,100
2022-09-27T07:09:24.237Z,100
2022-09-27T07:10:24.784Z,100
2022-09-27T07:11:23.906Z,100
2022-09-27T07:12:23.888Z,100
2022-09-27T07:13:24.029Z,100
2022-09-27T07:14:23.935Z,100
2022-09-27T07:15:23.974Z,100
2022-09-27T07:16:24.090Z,100
2022-09-27T07:17:23.983Z,99.87
2022-09-27T07:18:24.280Z,99.56
2022-09-27T07:19:24.093Z,99.19
2022-09-27T07:20:24.281Z,99.11
2022-09-27T07:21:24.051Z,98.84
2022-09-27T07:22:24.093Z,98.89
2022-09-27T07:23:24.082Z,98.38
2022-09-27T07:24:24.098Z,98.93
2022-09-27T07:25:24.653Z,97.96
2022-09-27T07:26:24.142Z,97.34
2022-09-27T07:27:24.180Z,97.34
2022-09-27T07:28:24.191Z,96.86
2022-09-27T07:29:24.208Z,96.62
2022-09-27T07:30:24.285Z,96.52
2022-09-27T07:31:24.445Z,96.73
2022-09-27T07:32:24.245Z,96.22
2022-09-27T07:33:24.578Z,95.98
2022-09-27T07:34:24.289Z,95.64
2022-09-27T07:35:24.830Z,95.07
2022-09-27T07:36:24.472Z,94.48
2022-09-27T07:37:24.402Z,94.31
2022-09-27T07:38:24.395Z,94.11
2022-09-27T07:39:24.376Z,94.65
2022-09-27T07:40:25.365Z,94.26
2022-09-27T07:41:24.434Z,94.12
2022-09-27T07:42:24.450Z,93.57
2022-09-27T07:43:24.500Z,93.88
2022-09-27T07:44:24.677Z,93.87
2022-09-27T07:45:25.226Z,93.54
2022-09-27T07:46:24.567Z,93.21
2022-09-27T07:47:25.238Z,93.74
2022-09-27T07:48:24.538Z,93.45
2022-09-27T07:49:24.522Z,93.95
2022-09-27T07:50:24.678Z,92.75
2022-09-27T07:51:24.590Z,92.58
2022-09-27T07:52:24.549Z,91.34
2022-09-27T07:53:24.587Z,91.25
2022-09-27T07:54:24.706Z,91.13
2022-09-27T07:55:24.666Z,90.85
2022-09-27T07:56:24.934Z,90.95
2022-09-27T07:57:24.708Z,91.55
2022-09-27T07:58:24.866Z,91.27
2022-09-27T07:59:24.681Z,90.25
2022-09-27T08:00:24.796Z,89.7
2022-09-27T08:01:25.390Z,89.86
2022-09-27T08:02:24.819Z,89.45
2022-09-27T08:03:25.028Z,89.24
2022-09-27T08:04:24.776Z,88.27
2022-09-27T08:05:24.793Z,87.87
2022-09-27T08:06:25.143Z,88.08
2022-09-27T08:07:25.037Z,87.64
2022-09-27T08:08:24.861Z,87.61
2022-09-27T08:09:24.865Z,86.98
2022-09-27T08:10:24.879Z,87.1
2022-09-27T08:11:24.913Z,87.16
2022-09-27T08:12:25.068Z,87.39
2022-09-27T08:13:24.931Z,86.64
2022-09-27T08:14:24.931Z,86.8
2022-09-27T08:15:25.376Z,87.1
2022-09-27T08:16:25.091Z,86.38
2022-09-27T08:17:25.274Z,86.11
2022-09-27T08:18:25.026Z,86.66
2022-09-27T08:19:25.022Z,85.74
2022-09-27T08:20:25.066Z,85.96
2022-09-27T08:21:25.082Z,84.96
2022-09-27T08:22:25.225Z,84.78
2022-09-27T08:23:25.123Z,85.2
2022-09-27T08:24:25.100Z,84.5
2022-09-27T08:25:25.136Z,83.98
2022-09-27T08:26:27.435Z,84.16
2022-09-27T08:27:25.163Z,84.39
2022-09-27T08:28:26.006Z,84.1
2022-09-27T08:29:25.404Z,84.41
2022-09-27T08:30:25.994Z,83.44
2022-09-27T08:31:25.361Z,83.88
2022-09-27T08:32:25.267Z,83.8
2022-09-27T08:33:28.624Z,83.32
2022-09-27T08:34:27.589Z,83.47
2022-09-27T08:35:27.909Z,83.12
2022-09-27T08:36:27.625Z,83.4
2022-09-27T08:37:27.662Z,82.93
2022-09-27T08:38:27.642Z,82.94
2022-09-27T08:39:27.705Z,83.66
2022-09-27T08:43:36.426Z,81.51
2022-09-27T08:47:54.453Z,81.61
2022-09-27T08:48:49.475Z,80.6
2022-09-27T08:49:54.797Z,80.77
2022-09-27T08:50:47.940Z,80.95
2022-09-27T08:51:49.092Z,80.7
2022-09-27T08:52:57.924Z,79.94
2022-09-27T08:53:55.673Z,80.29
2022-09-27T08:54:52.434Z,79.98
2022-09-27T08:55:54.314Z,79.87
2022-09-27T08:56:54.629Z,79.95
2022-09-27T08:57:55.468Z,79.39
2022-09-27T09:00:58.928Z,78.61
2022-09-27T09:01:56.341Z,78.52
2022-09-27T09:02:57.446Z,79
2022-09-27T09:03:59.354Z,78.72
2022-09-27T09:05:00.423Z,78.78
2022-09-27T09:15:31.762Z,75.99
2022-09-27T09:33:16.608Z,74.99
2022-09-27T09:34:20.379Z,75.08
2022-09-27T09:35:15.709Z,74.98
2022-09-27T09:36:25.038Z,75.1
2022-09-27T09:37:21.126Z,74.25
2022-09-27T09:38:27.096Z,74.42
2022-09-27T09:40:31.299Z,74.29
2022-09-27T09:41:31.531Z,73.74
2022-09-27T09:42:31.103Z,73.39
2022-09-27T09:43:34.256Z,74.04
2022-09-27T09:44:34.163Z,72.97
2022-09-27T09:45:33.598Z,73.04
2022-09-27T09:46:34.485Z,72.77
2022-09-27T09:47:42.051Z,73.38
2022-09-27T09:48:41.097Z,72.49
2022-09-27T09:49:45.168Z,71.97
2022-09-27T09:50:49.987Z,71.98
2022-09-27T09:51:49.958Z,72.25
2022-09-27T09:52:49.914Z,71.45
2022-09-27T09:53:54.175Z,72.88
2022-09-27T09:54:57.219Z,73.54
2022-09-27T09:56:00.901Z,73.41
2022-09-27T09:58:02.530Z,73.32
2022-09-27T09:59:04.463Z,73.91
2022-09-27T10:00:02.364Z,74
2022-09-27T10:02:15.424Z,73.31
2022-09-27T10:03:07.216Z,73.45
2022-09-27T10:04:15.735Z,73.46
2022-09-27T10:05:10.884Z,74.24
2022-09-27T10:06:09.498Z,73.99
2022-09-27T10:07:08.422Z,72.9
2022-09-27T10:08:12.605Z,72.24
2022-09-27T10:09:11.700Z,71.82
2022-09-27T10:10:13.300Z,71.53
2022-09-27T10:11:18.384Z,71.21
2022-09-27T10:12:10.209Z,71.72
2022-09-27T10:13:15.170Z,72.25
2022-09-27T10:14:13.504Z,72.04
2022-09-27T10:15:19.046Z,72.43
2022-09-27T10:16:17.461Z,71.7
2022-09-27T10:17:18.750Z,72.52
2022-09-27T10:18:18.275Z,71.11
2022-09-27T10:19:18.352Z,72.2
2022-09-27T10:22:28.998Z,70.54
2022-09-27T10:23:25.605Z,70.47
2022-09-27T10:24:25.738Z,70.72
2022-09-27T10:26:32.952Z,70.1
2022-09-27T10:27:42.383Z,70.7
2022-09-27T10:28:43.929Z,69.42
2022-09-27T10:29:38.309Z,69.4
2022-09-27T10:30:35.831Z,70.57
2022-09-27T10:31:35.683Z,69.63
2022-09-27T10:32:36.964Z,69.01
2022-09-27T10:33:40.043Z,69.06
2022-09-27T10:34:41.418Z,68.85
2022-09-27T10:35:41.409Z,68.58
2022-09-27T10:36:38.075Z,68
2022-09-27T10:37:38.158Z,68.24
2022-09-27T10:38:38.097Z,67.26
2022-09-27T10:39:39.170Z,68.1
2022-09-27T10:40:38.246Z,67.17
2022-09-27T10:41:39.165Z,67.41
2022-09-27T10:42:38.460Z,67.27
2022-09-27T10:43:38.237Z,67.6
2022-09-27T10:44:38.448Z,67.91
2022-09-27T10:45:39.088Z,67.25
2022-09-27T10:46:38.637Z,67.79
2022-09-27T10:47:38.339Z,68.42
2022-09-27T10:48:38.715Z,68.32
2022-09-27T10:49:39.434Z,68.48
2022-09-27T10:50:50.273Z,67.74
2022-09-27T10:51:39.171Z,67.94
2022-09-27T10:52:39.146Z,67.68
2022-09-27T10:53:44.616Z,67.74
2022-09-27T10:54:42.143Z,68.1
2022-09-27T10:55:46.630Z,67.51
2022-09-27T10:56:43.338Z,66.87
2022-09-27T10:57:48.341Z,67.67
2022-09-27T10:58:45.527Z,67.56
2022-09-27T10:59:47.101Z,67.87
2022-09-27T11:00:54.049Z,67.92
2022-09-27T11:01:46.383Z,67.93
2022-09-27T11:02:51.497Z,68.26
2022-09-27T11:03:50.792Z,67.9
2022-09-27T11:05:49.811Z,66.17
2022-09-27T11:06:49.915Z,66.41
2022-09-27T11:07:51.441Z,66.08
2022-09-27T11:08:50.908Z,66.92
2022-09-27T11:09:54.251Z,67.61
2022-09-27T11:12:08.490Z,67.34
2022-09-27T11:14:04.119Z,65.13
2022-09-27T11:15:05.094Z,65.38
2022-09-27T11:18:11.889Z,66.28
2022-09-27T11:20:24.617Z,65.3
2022-09-27T11:21:27.773Z,64.37
2022-09-27T11:23:35.537Z,66.16
2022-09-27T11:25:40.207Z,65.73
2022-09-27T11:36:07.882Z,65.83
2022-09-27T11:37:12.643Z,66.21
2022-09-27T11:41:30.096Z,64.61
2022-09-27T11:42:33.908Z,64.65
2022-09-27T11:43:32.104Z,64.3
2022-09-27T11:46:41.182Z,64.76
2022-09-27T11:47:40.362Z,64.62
2022-09-27T12:00:19.334Z,67.37
2022-09-27T12:01:26.625Z,67.37
2022-09-27T12:04:36.653Z,67.09
2022-09-27T12:09:36.296Z,64.91
2022-09-27T12:10:33.850Z,65.28
2022-09-27T12:12:38.283Z,64.51
2022-09-27T12:13:38.678Z,64.16
2022-09-27T12:15:40.151Z,62.98
2022-09-27T12:16:38.883Z,63.02
2022-09-27T12:17:39.646Z,63.41
2022-09-27T12:18:38.226Z,63.89
2022-09-27T12:19:38.617Z,63.27
2022-09-27T12:20:37.970Z,63.93
2022-09-27T12:21:36.935Z,65.27
2022-09-27T12:23:01.384Z,65
2022-09-27T12:23:41.313Z,66.21
2022-09-27T12:24:38.845Z,65.86
2022-09-27T12:25:41.132Z,65.3
2022-09-27T12:26:40.305Z,65.14
2022-09-27T12:27:40.812Z,65.2
2022-09-27T12:29:41.740Z,64.53
2022-09-27T12:30:41.351Z,65.38
2022-09-27T12:31:49.114Z,65.53
2022-09-27T12:35:52.580Z,68.19
2022-09-27T12:36:53.677Z,68.26
2022-09-27T12:40:03.236Z,68.57
2022-09-27T12:41:01.539Z,68.38
2022-09-27T12:42:13.256Z,67.02
2022-09-27T12:44:10.340Z,66.85
2022-09-27T12:47:24.672Z,67.02
2022-09-27T12:51:30.049Z,68.33
2022-09-27T12:52:28.533Z,69.03
2022-09-27T12:53:29.951Z,69.76
2022-09-27T12:58:49.635Z,69.2
2022-09-27T12:59:56.387Z,68.46
2022-09-27T13:05:05.542Z,64.06
2022-09-27T13:06:10.368Z,63.65
2022-09-27T13:10:23.237Z,63.72
2022-09-27T13:12:22.091Z,64.41
2022-09-27T13:13:22.670Z,64.12
2022-09-27T13:14:23.737Z,64.73
2022-09-27T13:16:24.633Z,65.65
2022-09-27T13:19:40.417Z,65.26
2022-09-27T13:20:39.550Z,65.32
2022-09-27T13:22:37.521Z,65.91
2022-09-27T13:24:42.777Z,64.87
2022-09-27T13:26:44.386Z,64.74
2022-09-27T13:27:43.467Z,65.26
2022-09-27T13:29:45.372Z,64.93
2022-09-27T13:30:45.732Z,65.09
2022-09-27T13:33:54.348Z,65.79
2022-09-27T13:34:55.750Z,66.04
2022-09-27T13:36:58.088Z,65.88
2022-09-27T13:37:59.200Z,66.22
2022-09-27T13:42:11.539Z,66.69
2022-09-27T13:45:19.637Z,67.43
2022-09-27T13:46:18.634Z,67.52
2022-09-27T13:47:29.256Z,67.16
2022-09-27T13:49:28.358Z,67.77
2022-09-27T13:50:27.551Z,67.4
2022-09-27T13:52:35.560Z,68.37
2022-09-27T13:53:39.752Z,67.6
2022-09-27T13:54:38.742Z,66.96
2022-09-27T13:59:51.714Z,67.66
2022-09-27T14:00:49.090Z,68.01
2022-09-27T14:01:49.205Z,68.42
2022-09-27T14:02:51.507Z,69.41
2022-09-27T14:03:48.522Z,69.11
2022-09-27T14:04:49.662Z,69.64
2022-09-27T14:05:52.644Z,70.06
2022-09-27T14:06:50.932Z,70.35
2022-09-27T14:07:50.117Z,70.78
2022-09-27T14:08:51.196Z,71.05
2022-09-27T14:09:51.890Z,71.22
2022-09-27T14:10:49.094Z,71.37
2022-09-27T14:11:51.181Z,71.2
2022-09-27T14:12:50.359Z,71.17
2022-09-27T14:13:49.526Z,71.46
2022-09-27T14:14:49.491Z,70.92
2022-09-27T14:15:49.884Z,71.02
2022-09-27T14:16:49.237Z,71.07
2022-09-27T14:17:49.028Z,71.49
2022-09-27T14:18:51.309Z,71.98
2022-09-27T14:19:49.149Z,72.11
2022-09-27T14:20:50.922Z,72.24
2022-09-27T14:21:49.272Z,72.19
2022-09-27T14:22:53.702Z,71.89
2022-09-27T14:23:50.600Z,71.47
2022-09-27T14:24:54.538Z,70.56
2022-09-27T14:25:52.076Z,70.34
2022-09-27T14:27:53.892Z,69.73
2022-09-27T14:28:53.948Z,70.02
2022-09-27T14:29:55.543Z,70.39
2022-09-27T14:33:00.692Z,69.47
2022-09-27T14:34:07.401Z,69.99
2022-09-27T14:35:10.780Z,70.53
2022-09-27T14:36:13.205Z,70.39
2022-09-27T14:38:36.594Z,70.05
2022-09-27T14:41:17.973Z,69.84
2022-09-27T14:42:19.717Z,70.18
2022-09-27T14:43:19.319Z,70.36
2022-09-27T14:44:19.005Z,70.36
2022-09-27T14:45:22.427Z,70.3
2022-09-27T14:47:21.824Z,70.94
2022-09-27T14:49:23.646Z,71.54
2022-09-27T14:50:26.247Z,71.59
2022-09-27T14:51:31.980Z,71.71
2022-09-27T14:52:24.799Z,71.73
2022-09-27T14:53:24.701Z,71.53
2022-09-27T14:54:24.516Z,71.29
2022-09-27T14:55:24.813Z,71.6
2022-09-27T14:56:31.852Z,71.73
2022-09-27T14:57:29.893Z,71.77
2022-09-27T14:58:45.995Z,72.01
2022-09-27T14:59:29.780Z,72.31
2022-09-27T15:00:30.273Z,72.53
2022-09-27T15:01:29.556Z,72.82
2022-09-27T15:02:28.642Z,72.82
2022-09-27T15:03:34.798Z,72.91
2022-09-27T15:04:30.752Z,73.16
2022-09-27T15:05:30.640Z,72.71
2022-09-27T15:06:29.101Z,73.19
2022-09-27T15:07:31.223Z,73.33
2022-09-27T15:08:29.820Z,72.87
2022-09-27T15:09:32.881Z,73.18
2022-09-27T15:10:30.768Z,73.36
2022-09-27T15:11:29.934Z,73.67
2022-09-27T15:12:30.016Z,73.86
2022-09-27T15:13:29.818Z,73.9
2022-09-27T15:14:30.408Z,74.16
2022-09-27T15:15:31.421Z,74.4
2022-09-27T15:16:30.647Z,74.14
2022-09-27T15:19:33.787Z,74.19
2022-09-27T15:20:35.608Z,74.04
2022-09-27T15:21:34.710Z,74.03
2022-09-27T15:22:40.886Z,73.95
2022-09-27T15:23:41.732Z,74.19
2022-09-27T15:24:44.808Z,74.67
2022-09-27T15:26:44.202Z,74.64
2022-09-27T15:27:46.955Z,74.89
2022-09-27T15:28:45.015Z,75.35
2022-09-27T15:29:54.212Z,75.09
2022-09-27T15:30:55.728Z,75.44
2022-09-27T15:31:58.241Z,75.55
2022-09-27T15:32:52.299Z,75.65
2022-09-27T15:33:54.899Z,75.64
2022-09-27T15:34:52.332Z,76.04
2022-09-27T15:35:54.191Z,76.26
2022-09-27T15:36:54.383Z,76.3
2022-09-27T15:37:51.611Z,76.3
2022-09-27T15:39:05.872Z,76.24
2022-09-27T15:39:52.665Z,76.48
2022-09-27T15:43:01.016Z,77.14
2022-09-27T15:43:57.195Z,77.38
2022-09-27T15:44:57.234Z,77.56
2022-09-27T15:45:58.565Z,77.8
2022-09-27T15:46:57.322Z,78.36
2022-09-27T15:53:09.663Z,79.05
2022-09-27T15:54:08.679Z,79.14
2022-09-27T15:55:12.544Z,79.64
2022-09-27T15:56:12.517Z,79.78
2022-09-27T15:57:11.124Z,79.93
2022-09-27T16:00:15.550Z,80.27
2022-09-27T16:01:18.610Z,81.09
2022-09-27T16:02:16.777Z,81.54
2022-09-27T16:03:14.810Z,81.61
2022-09-27T16:04:14.880Z,81.78
2022-09-27T16:05:15.200Z,82.07
2022-09-27T16:06:14.856Z,82.33
2022-09-27T16:07:15.079Z,82.13
2022-09-27T16:08:15.367Z,82.24
2022-09-27T16:09:18.387Z,82.17
2022-09-27T16:10:16.522Z,82.27
2022-09-27T16:11:15.944Z,82.71
2022-09-27T16:12:14.932Z,83.04
2022-09-27T16:13:14.942Z,83.46
2022-09-27T16:14:15.439Z,83.44
2022-09-27T16:15:15.194Z,83.58
2022-09-27T16:16:19.331Z,83.62
2022-09-27T16:17:15.698Z,84.25
2022-09-27T16:18:15.687Z,84.22
2022-09-27T16:19:16.034Z,84.19
2022-09-27T16:20:20.277Z,84.08
2022-09-27T16:21:16.514Z,84.27
2022-09-27T16:22:16.468Z,84.72
2022-09-27T16:23:16.469Z,85
2022-09-27T16:24:16.536Z,84.86
2022-09-27T16:25:16.504Z,85.16
2022-09-27T16:26:16.547Z,85.28
2022-09-27T16:27:23.933Z,85.73
2022-09-27T16:28:20.327Z,86.14
2022-09-27T16:29:20.530Z,86.31
2022-09-27T16:30:20.146Z,86.15
2022-09-27T16:31:20.569Z,86.22
2022-09-27T16:32:20.182Z,86.56
2022-09-27T16:33:20.197Z,86.63
2022-09-27T16:34:20.332Z,86.51
2022-09-27T16:35:21.313Z,86.5
2022-09-27T16:36:20.420Z,86.54
2022-09-27T16:37:20.238Z,86.58
2022-09-27T16:38:20.249Z,86.89
2022-09-27T16:39:20.260Z,87.05
2022-09-27T16:40:20.368Z,87.17
2022-09-27T16:41:21.404Z,87.12
2022-09-27T16:42:20.307Z,87.12
2022-09-27T16:43:20.304Z,87.43
2022-09-27T16:44:20.335Z,87.44
2022-09-27T16:45:20.356Z,87.29
2022-09-27T16:46:20.419Z,87.31
2022-09-27T16:47:20.396Z,87.4
2022-09-27T16:48:20.389Z,87.36
2022-09-27T16:49:20.376Z,87.51
2022-09-27T16:50:20.384Z,87.65
2022-09-27T16:51:21.300Z,87.9
2022-09-27T16:52:20.493Z,88.08
2022-09-27T16:53:20.431Z,88.05
2022-09-27T16:54:20.448Z,88.13
2022-09-27T16:55:20.446Z,88.37
2022-09-27T16:56:20.497Z,88.22
2022-09-27T16:57:20.516Z,88.12
2022-09-27T16:58:20.506Z,88.05
2022-09-27T16:59:20.552Z,88.23